Aérodrome :
LOGIN :

S'inscrire | Disclaimer

   EN    FR    IT 

 










Légende :    VFR   VFR Marginal   IFR   IFR Intensif   IFR Très Intensif
Visi : 
Plafond : 
>= 8 km
>= 3000ft
5 à 8 km
1000 à 3000 ft
1500m à 5 km
500 à 1000 ft
800 à 1500m
200 à 500 ft
< 800m
< 200 ft
Symboles :   Orages  Brouillard  Fortes neiges  Fortes précipitations  Vent > 20 kt
SIGMETs :   Divers  Orages  Givrage  Turbulence  Onde Orograph.  Cendres Volcan.






- Altitude de l'aérodrome : 141 ft
- Code IATA : SKS


EKSP - Srydstrup Vojens

DERNIER METAR :
  • 220750Z 17007KT 9999 -DZ FEW005 BKN050 07/07 Q1007 TEMPO 4000 BKN006

METARs EXPIRÉS :
  • 220720Z 18006KT 9999 -DZ FEW005 SCT016 BKN050 07/07 Q1007 TEMPO 2500 BKN005
  • 220650Z 17008KT 7000 -DZRA SCT005 BKN016 08/08 Q1007 TEMPO 2500 BKN005
  • 220620Z 15006KT 7000 -DZ SCT005 BKN012 08/08 Q1007 TEMPO 2000 BKN004
  • 220550Z 14005KT 7000 -DZRA SCT005 BKN012 08/08 Q1007 TEMPO 2000 BKN004
  • 220520Z 13004KT 7000 -DZRA SCT004 BKN006 08/08 Q1006 TEMPO 2000 BKN004

TAF TAF EKSP
Valide du 22 à 06h jusqu'au 23 à 06h UTC


220523Z 2206/2306 14008KT 5000 BR BKN006
TEMPO 2206/2208 2000 -RADZ BKN003
BECMG 2209/2211 16010KT 8000 NSW BKN020
TEMPO 2211/2214 6000 BKN012
TEMPO 2214/2217 4000 BR
TEMPO 2218/2306 2000 BR BKN004



MET'MAP, la Météo Aéronautique d'un coup d'oeil ! - Copyright ORBIFLY Décembre 2007 - Disclaimer

ORBIFLY MET'MAP TEAM :

Programmation & Développement : Alexandra Zaïnal
Conception & Développement : Baudouin d'Aumeries
Co-Programmation & Développement : Marc-Olivier Méhu
Soutien technique & logistique : Manuel Goepfert

Contact : metmap@orbifly.com




SOURCES & CREDITS :

   NOAA